createdAt,value
2022-09-16T00:00:32.239Z,9.83
2022-09-16T00:02:58.921Z,9.90
2022-09-16T00:05:26.157Z,9.95
2022-09-16T00:07:54.026Z,9.97
2022-09-16T00:10:21.581Z,10.00
2022-09-16T00:12:49.250Z,10.17
2022-09-16T00:15:16.155Z,10.16
2022-09-16T00:17:42.692Z,10.18
2022-09-16T00:20:09.752Z,10.15
2022-09-16T00:22:36.288Z,10.23
2022-09-16T00:25:02.891Z,10.16
2022-09-16T00:27:29.449Z,10.18
2022-09-16T00:29:55.945Z,10.17
2022-09-16T00:32:24.191Z,10.19
2022-09-16T00:34:51.714Z,10.15
2022-09-16T00:37:18.368Z,10.12
2022-09-16T00:39:47.322Z,10.05
2022-09-16T00:42:13.919Z,10.14
2022-09-16T00:44:54.279Z,10.12
2022-09-16T00:47:43.725Z,10.13
2022-09-16T00:50:36.396Z,10.04
2022-09-16T00:53:03.475Z,10.17
2022-09-16T00:55:33.989Z,10.17
2022-09-16T00:58:10.386Z,10.21
2022-09-16T01:00:38.409Z,10.16
2022-09-16T01:03:06.049Z,10.16
2022-09-16T01:05:34.007Z,10.11
2022-09-16T01:08:01.134Z,10.14
2022-09-16T01:10:27.853Z,10.07
2022-09-16T01:13:02.703Z,9.98
2022-09-16T01:15:56.730Z,9.99
2022-09-16T01:18:23.488Z,10.01
2022-09-16T01:21:38.907Z,9.99
2022-09-16T01:24:32.941Z,10.00
2022-09-16T01:26:59.499Z,10.04
2022-09-16T01:29:52.424Z,10.01
2022-09-16T01:32:21.588Z,9.95
2022-09-16T01:35:08.372Z,9.88
2022-09-16T01:37:40.906Z,9.88
2022-09-16T01:40:18.692Z,9.83
2022-09-16T01:42:47.548Z,9.77
2022-09-16T01:45:38.337Z,9.77
2022-09-16T01:48:04.831Z,9.74
2022-09-16T01:51:12.334Z,9.70
2022-09-16T01:53:43.916Z,9.70
2022-09-16T01:56:18.460Z,9.68
2022-09-16T01:59:19.093Z,9.65
2022-09-16T02:02:12.401Z,9.67
2022-09-16T02:04:50.885Z,9.73
2022-09-16T02:07:21.903Z,9.70
2022-09-16T02:09:58.133Z,9.66
2022-09-16T02:12:29.295Z,9.73
2022-09-16T02:15:03.732Z,9.74
2022-09-16T02:17:33.969Z,9.80
2022-09-16T02:20:09.044Z,9.95
2022-09-16T02:22:44.803Z,9.91
2022-09-16T02:25:14.609Z,9.94
2022-09-16T02:27:45.803Z,10.00
2022-09-16T02:30:17.097Z,9.94
2022-09-16T02:32:47.134Z,10.00
2022-09-16T02:35:17.129Z,9.97
2022-09-16T02:37:50.477Z,9.91
2022-09-16T02:40:22.759Z,9.91
2022-09-16T02:42:49.755Z,9.87
2022-09-16T02:45:16.828Z,9.84
2022-09-16T02:47:46.327Z,9.84
2022-09-16T02:50:17.770Z,9.83
2022-09-16T02:52:53.245Z,9.90
2022-09-16T02:55:59.550Z,9.86
2022-09-16T02:58:26.198Z,9.81
2022-09-16T03:00:55.136Z,9.70
2022-09-16T03:03:22.098Z,9.65
2022-09-16T03:06:04.056Z,9.63
2022-09-16T03:08:30.660Z,9.64
2022-09-16T03:11:02.672Z,9.53
2022-09-16T03:13:42.047Z,9.48
2022-09-16T03:16:29.474Z,9.49
2022-09-16T03:19:18.583Z,9.60
2022-09-16T03:21:55.031Z,9.53
2022-09-16T03:24:45.673Z,9.61
2022-09-16T03:27:19.208Z,9.57
2022-09-16T03:29:54.707Z,9.62
2022-09-16T03:32:25.727Z,9.69
2022-09-16T03:34:59.863Z,9.59
2022-09-16T03:37:29.154Z,9.64
2022-09-16T03:39:58.129Z,9.77
2022-09-16T03:42:24.675Z,9.79
2022-09-16T03:44:51.159Z,9.74
2022-09-16T03:47:18.536Z,9.76
2022-09-16T03:49:46.474Z,9.74
2022-09-16T03:52:13.021Z,9.79
2022-09-16T03:54:39.651Z,9.71
2022-09-16T03:57:06.584Z,9.62
2022-09-16T03:59:33.220Z,9.62
2022-09-16T04:01:59.755Z,9.52
2022-09-16T04:04:26.308Z,9.53
2022-09-16T04:06:52.862Z,9.52
2022-09-16T04:09:19.422Z,9.38
2022-09-16T04:11:45.912Z,9.45
2022-09-16T04:14:12.608Z,9.31
2022-09-16T04:16:44.310Z,9.34
2022-09-16T04:19:17.047Z,9.29
2022-09-16T04:21:43.585Z,9.27
2022-09-16T04:24:13.179Z,9.30
2022-09-16T04:26:40.995Z,9.26
2022-09-16T04:29:08.118Z,9.28
2022-09-16T04:31:34.871Z,9.18
2022-09-16T04:34:02.781Z,9.13
2022-09-16T04:36:29.311Z,9.21
2022-09-16T04:38:55.799Z,9.20
2022-09-16T04:41:24.584Z,9.24
2022-09-16T04:43:56.438Z,9.28
2022-09-16T04:46:24.663Z,9.37
2022-09-16T04:48:52.848Z,9.39
2022-09-16T04:51:20.164Z,9.41
2022-09-16T04:53:47.292Z,9.38
2022-09-16T04:56:19.718Z,9.34
2022-09-16T04:58:51.750Z,9.31
2022-09-16T05:01:21.009Z,9.23
2022-09-16T05:03:49.656Z,9.19
2022-09-16T05:06:22.399Z,9.17
2022-09-16T05:08:49.886Z,9.17
2022-09-16T05:11:19.360Z,9.24
2022-09-16T05:13:46.766Z,9.30
2022-09-16T05:16:16.209Z,9.32
2022-09-16T05:18:44.705Z,9.39
2022-09-16T05:21:13.747Z,9.42
2022-09-16T05:23:45.942Z,9.43
2022-09-16T05:26:16.624Z,9.37
2022-09-16T05:28:43.684Z,9.32
2022-09-16T05:31:17.855Z,9.32
2022-09-16T05:33:47.563Z,9.20
2022-09-16T05:36:16.884Z,9.20
2022-09-16T05:38:59.193Z,9.23
2022-09-16T05:41:30.473Z,9.19
2022-09-16T05:44:01.120Z,9.31
2022-09-16T05:46:28.832Z,9.38
2022-09-16T05:48:56.493Z,9.42
2022-09-16T05:51:24.927Z,9.43
2022-09-16T05:53:53.240Z,9.50
2022-09-16T05:56:25.851Z,9.52
2022-09-16T05:58:58.113Z,9.58
2022-09-16T06:01:28.185Z,9.55
2022-09-16T06:03:55.240Z,9.49
2022-09-16T06:06:26.143Z,9.63
2022-09-16T06:08:56.361Z,9.54
2022-09-16T06:11:23.952Z,9.62
2022-09-16T06:13:58.457Z,9.74
2022-09-16T06:16:26.291Z,9.88
2022-09-16T06:18:53.607Z,9.88
2022-09-16T06:21:20.755Z,9.93
2022-09-16T06:23:47.228Z,9.85
2022-09-16T06:26:19.266Z,9.87
2022-09-16T06:28:47.170Z,9.90
2022-09-16T06:31:17.924Z,9.94
2022-09-16T06:33:44.723Z,10.03
2022-09-16T06:36:16.280Z,10.11
2022-09-16T06:38:43.828Z,10.39
2022-09-16T06:41:12.375Z,10.51
2022-09-16T06:43:39.263Z,10.60
2022-09-16T06:46:13.700Z,10.74
2022-09-16T06:48:41.231Z,10.68
2022-09-16T06:51:11.004Z,10.68
2022-09-16T06:53:37.688Z,10.71
2022-09-16T06:56:07.085Z,10.72
2022-09-16T06:58:36.041Z,10.71
2022-09-16T07:01:11.421Z,10.80
2022-09-16T07:03:43.103Z,11.09
2022-09-16T07:06:11.566Z,11.17
2022-09-16T07:08:39.328Z,11.17
2022-09-16T07:11:11.563Z,11.00
2022-09-16T07:13:38.233Z,10.98
2022-09-16T07:16:18.089Z,11.14
2022-09-16T07:18:44.989Z,11.21
2022-09-16T07:21:14.236Z,11.44
2022-09-16T07:23:41.856Z,11.71
2022-09-16T07:26:11.415Z,11.82
2022-09-16T07:28:39.758Z,11.83
2022-09-16T07:31:12.117Z,12.01
2022-09-16T07:33:40.860Z,12.06
2022-09-16T07:36:09.608Z,12.20
2022-09-16T07:38:36.554Z,12.34
2022-09-16T07:41:15.047Z,12.47
2022-09-16T07:43:43.360Z,12.63
2022-09-16T07:46:11.713Z,12.42
2022-09-16T07:48:38.906Z,12.19
2022-09-16T07:51:08.441Z,11.82
2022-09-16T07:53:35.671Z,11.84
2022-09-16T07:56:10.865Z,12.00
2022-09-16T07:58:38.582Z,12.05
2022-09-16T08:01:07.751Z,12.27
2022-09-16T08:03:36.011Z,12.58
2022-09-16T08:06:05.922Z,12.71
2022-09-16T08:08:33.781Z,12.92
2022-09-16T08:11:01.735Z,13.12
2022-09-16T08:13:31.176Z,13.42
2022-09-16T08:16:07.092Z,13.53
2022-09-16T08:18:34.317Z,13.55
2022-09-16T08:21:08.139Z,13.46
2022-09-16T08:23:38.844Z,13.44
2022-09-16T08:26:08.431Z,13.13
2022-09-16T08:28:45.209Z,13.13
2022-09-16T08:31:19.223Z,13.19
2022-09-16T08:33:46.359Z,13.20
2022-09-16T08:36:16.805Z,13.11
2022-09-16T08:38:44.900Z,12.93
2022-09-16T08:41:35.953Z,12.70
2022-09-16T08:44:30.037Z,12.54
2022-09-16T08:47:00.029Z,12.48
2022-09-16T08:49:33.065Z,12.79
2022-09-16T08:52:02.759Z,12.97
2022-09-16T08:54:45.233Z,13.09
2022-09-16T08:57:17.430Z,13.26
2022-09-16T08:59:51.427Z,13.56
2022-09-16T09:05:19.591Z,13.47
2022-09-16T09:07:51.445Z,13.80
2022-09-16T09:10:31.653Z,14.09
2022-09-16T09:13:29.009Z,14.11
2022-09-16T09:16:05.692Z,14.24
2022-09-16T09:18:48.527Z,14.31
2022-09-16T09:21:42.734Z,14.39
2022-09-16T09:24:31.115Z,14.43
2022-09-16T09:27:14.433Z,14.38
2022-09-16T09:30:03.420Z,14.50
2022-09-16T09:32:48.455Z,14.39
2022-09-16T09:35:51.692Z,14.45
2022-09-16T09:38:21.258Z,14.45
2022-09-16T09:41:04.371Z,14.53
2022-09-16T09:44:09.280Z,14.84
2022-09-16T09:46:40.264Z,15.04
2022-09-16T09:49:28.183Z,15.06
2022-09-16T09:52:42.090Z,14.90
2022-09-16T09:55:18.920Z,14.71
2022-09-16T09:58:01.247Z,14.77
2022-09-16T10:00:28.188Z,15.06
2022-09-16T10:03:04.730Z,15.19
2022-09-16T10:05:31.501Z,15.34
2022-09-16T10:08:04.001Z,15.31
2022-09-16T10:10:34.217Z,15.51
2022-09-16T10:13:09.316Z,15.57
2022-09-16T10:15:36.334Z,15.57
2022-09-16T10:18:11.871Z,15.62
2022-09-16T10:20:42.862Z,15.77
2022-09-16T10:23:15.573Z,15.65
2022-09-16T10:25:42.972Z,15.50
2022-09-16T10:28:26.726Z,15.23
2022-09-16T10:30:56.350Z,15.35
2022-09-16T10:33:30.335Z,15.48
2022-09-16T10:36:02.121Z,15.77
2022-09-16T10:38:43.987Z,15.92
2022-09-16T10:41:22.513Z,16.02
2022-09-16T10:44:03.952Z,16.26
2022-09-16T10:46:31.174Z,16.55
2022-09-16T10:49:05.579Z,16.49
2022-09-16T10:51:34.712Z,16.42
2022-09-16T10:54:04.869Z,16.08
2022-09-16T10:56:47.068Z,16.06
2022-09-16T10:59:15.860Z,15.75
2022-09-16T11:01:47.351Z,14.95
2022-09-16T11:04:29.900Z,14.49
2022-09-16T11:07:14.845Z,14.13
2022-09-16T11:09:59.837Z,13.86
2022-09-16T11:12:44.189Z,14.02
2022-09-16T11:15:28.073Z,14.22
2022-09-16T11:18:26.718Z,14.41
2022-09-16T11:21:02.539Z,14.56
2022-09-16T11:23:49.515Z,14.57
2022-09-16T11:26:16.005Z,14.34
2022-09-16T11:29:01.041Z,14.39
2022-09-16T11:32:09.373Z,14.24
2022-09-16T11:34:51.058Z,14.23
2022-09-16T11:37:29.753Z,14.42
2022-09-16T11:40:19.702Z,14.54
2022-09-16T11:42:59.345Z,15.07
2022-09-16T11:45:46.908Z,15.33
2022-09-16T11:48:34.804Z,15.30
2022-09-16T11:51:11.216Z,15.03
2022-09-16T11:53:50.488Z,15.14
2022-09-16T11:56:35.857Z,15.26
2022-09-16T11:59:30.653Z,15.03
2022-09-16T12:02:15.485Z,14.65
2022-09-16T12:04:49.399Z,14.30
2022-09-16T12:07:34.701Z,14.14
2022-09-16T12:10:12.741Z,13.90
2022-09-16T12:12:46.131Z,13.38
2022-09-16T12:15:18.778Z,13.59
2022-09-16T12:18:12.212Z,13.96
2022-09-16T12:20:44.261Z,13.96
2022-09-16T12:23:27.803Z,13.87
2022-09-16T12:26:14.333Z,14.02
2022-09-16T12:28:59.507Z,14.23
2022-09-16T12:31:57.072Z,14.52
2022-09-16T12:34:33.364Z,14.39
2022-09-16T12:37:30.259Z,14.36
2022-09-16T12:39:56.957Z,13.81
2022-09-16T12:42:35.367Z,13.63
2022-09-16T12:45:08.189Z,13.38
2022-09-16T12:47:42.376Z,13.21
2022-09-16T12:50:27.477Z,13.29
2022-09-16T12:53:12.345Z,13.35
2022-09-16T12:55:51.195Z,13.11
2022-09-16T12:58:32.933Z,13.27
2022-09-16T13:01:37.226Z,13.24
2022-09-16T13:04:13.183Z,13.44
2022-09-16T13:06:52.581Z,13.42
2022-09-16T13:09:33.385Z,13.39
2022-09-16T13:15:01.960Z,13.18
2022-09-16T13:17:39.326Z,13.15
2022-09-16T13:20:11.798Z,12.98
2022-09-16T13:22:56.579Z,12.79
2022-09-16T13:25:45.088Z,12.69
2022-09-16T13:28:41.380Z,12.50
2022-09-16T13:31:33.935Z,12.11
2022-09-16T13:34:00.893Z,12.23
2022-09-16T13:36:28.449Z,12.14
2022-09-16T13:38:57.590Z,11.95
2022-09-16T13:41:47.722Z,11.84
2022-09-16T13:44:39.442Z,11.82
2022-09-16T13:47:09.311Z,11.82
2022-09-16T13:49:44.519Z,11.58
2022-09-16T13:52:13.480Z,11.60
2022-09-16T13:55:11.686Z,11.68
2022-09-16T13:57:42.073Z,11.68
2022-09-16T14:00:43.964Z,11.62
2022-09-16T14:03:41.783Z,11.57
2022-09-16T14:06:31.333Z,11.51
2022-09-16T14:09:01.805Z,11.45
2022-09-16T14:11:49.757Z,11.45
2022-09-16T14:14:45.929Z,11.39
2022-09-16T14:17:17.113Z,11.24
2022-09-16T14:19:46.898Z,11.27
2022-09-16T14:22:16.428Z,11.29
2022-09-16T14:24:44.863Z,11.39
2022-09-16T14:27:26.584Z,11.37
2022-09-16T14:29:58.510Z,11.40
2022-09-16T14:32:29.297Z,11.21
2022-09-16T14:34:59.379Z,11.30
2022-09-16T14:37:29.119Z,11.45
2022-09-16T14:40:02.531Z,11.42
2022-09-16T14:42:30.287Z,11.50
2022-09-16T14:44:58.777Z,11.53
2022-09-16T14:47:51.150Z,11.55
2022-09-16T14:50:26.265Z,11.54
2022-09-16T14:53:00.171Z,11.50
2022-09-16T14:55:30.100Z,11.54
2022-09-16T14:58:00.272Z,11.64
2022-09-16T15:00:44.235Z,11.72
2022-09-16T15:03:20.011Z,11.84
2022-09-16T15:05:47.496Z,11.93
2022-09-16T15:08:26.845Z,12.09
2022-09-16T15:10:57.643Z,12.23
2022-09-16T15:13:30.569Z,12.27
2022-09-16T15:16:08.296Z,12.21
2022-09-16T15:18:37.716Z,12.17
2022-09-16T15:21:17.321Z,12.14
2022-09-16T15:23:48.042Z,12.27
2022-09-16T15:26:32.100Z,12.37
2022-09-16T15:29:03.960Z,12.38
2022-09-16T15:31:34.864Z,12.44
2022-09-16T15:34:05.022Z,12.44
2022-09-16T15:36:34.679Z,12.42
2022-09-16T15:39:01.217Z,12.52
2022-09-16T15:41:28.098Z,12.50
2022-09-16T15:43:54.620Z,12.61
2022-09-16T15:46:23.755Z,12.63
2022-09-16T15:48:58.520Z,12.75
2022-09-16T15:51:33.469Z,12.73
2022-09-16T15:54:07.878Z,12.81
2022-09-16T15:56:49.464Z,12.76
2022-09-16T15:59:32.617Z,12.97
2022-09-16T16:02:02.599Z,12.92
2022-09-16T16:04:33.768Z,13.07
2022-09-16T16:07:02.936Z,13.16
2022-09-16T16:09:29.389Z,13.04
2022-09-16T16:12:11.429Z,13.19
2022-09-16T16:14:39.722Z,13.18
2022-09-16T16:17:15.198Z,13.23
2022-09-16T16:19:43.757Z,13.12
2022-09-16T16:22:11.729Z,13.21
2022-09-16T16:24:38.992Z,13.22
2022-09-16T16:27:06.126Z,13.30
2022-09-16T16:29:32.737Z,13.30
2022-09-16T16:32:03.923Z,13.27
2022-09-16T16:34:42.436Z,13.26
2022-09-16T16:37:23.217Z,13.24
2022-09-16T16:39:57.711Z,13.23
2022-09-16T16:42:24.871Z,13.06
2022-09-16T16:44:51.517Z,13.07
2022-09-16T16:47:18.042Z,13.07
2022-09-16T16:49:51.326Z,13.08
2022-09-16T16:52:18.403Z,12.98
2022-09-16T16:54:45.903Z,13.00
2022-09-16T16:57:12.473Z,12.97
2022-09-16T16:59:39.198Z,12.87
2022-09-16T17:02:06.074Z,12.83
2022-09-16T17:04:32.623Z,12.92
2022-09-16T17:07:24.214Z,12.76
2022-09-16T17:09:45.741Z,12.66
2022-09-16T17:12:13.036Z,12.84
2022-09-16T17:14:39.557Z,12.81
2022-09-16T17:17:06.233Z,12.88
2022-09-16T17:19:32.747Z,12.86
2022-09-16T17:21:59.341Z,12.89
2022-09-16T17:24:25.945Z,12.83
2022-09-16T17:26:52.435Z,12.74
2022-09-16T17:29:18.960Z,12.76
2022-09-16T17:31:45.454Z,12.76
2022-09-16T17:34:14.130Z,12.87
2022-09-16T17:36:43.343Z,12.78
2022-09-16T17:39:20.703Z,12.74
2022-09-16T17:41:51.575Z,12.71
2022-09-16T17:44:19.746Z,12.68
2022-09-16T17:46:47.075Z,12.62
2022-09-16T17:49:18.231Z,12.67
2022-09-16T17:51:45.358Z,12.67
2022-09-16T17:54:12.280Z,12.62
2022-09-16T17:56:39.077Z,12.63
2022-09-16T17:59:05.907Z,12.59
2022-09-16T18:01:32.500Z,12.65
2022-09-16T18:03:59.713Z,12.51
2022-09-16T18:06:35.551Z,12.45
2022-09-16T18:09:07.341Z,12.33
2022-09-16T18:11:34.902Z,12.35
2022-09-16T18:14:04.506Z,12.32
2022-09-16T18:16:31.791Z,12.26
2022-09-16T18:19:00.044Z,12.18
2022-09-16T18:21:27.783Z,12.13
2022-09-16T18:23:56.601Z,12.04
2022-09-16T18:26:23.803Z,12.09
2022-09-16T18:29:09.228Z,12.06
2022-09-16T18:31:36.578Z,12.01
2022-09-16T18:34:03.190Z,12.10
2022-09-16T18:36:30.525Z,12.07
2022-09-16T18:38:58.475Z,11.95
2022-09-16T18:41:30.092Z,12.03
2022-09-16T18:43:59.539Z,11.97
2022-09-16T18:46:28.883Z,11.92
2022-09-16T18:48:56.400Z,11.94
2022-09-16T18:51:26.056Z,11.98
2022-09-16T18:53:56.100Z,11.96
2022-09-16T18:56:25.032Z,11.99
2022-09-16T18:59:19.514Z,11.92
2022-09-16T19:01:41.496Z,11.82
2022-09-16T19:04:10.576Z,11.73
2022-09-16T19:06:40.432Z,11.68
2022-09-16T19:09:09.756Z,11.61
2022-09-16T19:11:37.543Z,11.55
2022-09-16T19:14:06.063Z,11.51
2022-09-16T19:16:33.240Z,11.45
2022-09-16T19:19:02.023Z,11.39
2022-09-16T19:21:28.854Z,11.40
2022-09-16T19:23:58.963Z,11.37
2022-09-16T19:26:27.747Z,11.35
2022-09-16T19:28:54.431Z,11.41
2022-09-16T19:31:21.091Z,11.31
2022-09-16T19:33:48.416Z,11.24
2022-09-16T19:36:21.902Z,11.15
2022-09-16T19:38:50.021Z,11.11
2022-09-16T19:41:18.094Z,11.04
2022-09-16T19:43:45.691Z,11.01
2022-09-16T19:46:15.223Z,10.95
2022-09-16T19:48:45.095Z,10.94
2022-09-16T19:51:13.848Z,10.98
2022-09-16T19:53:42.186Z,10.98
2022-09-16T19:56:14.804Z,11.01
2022-09-16T19:58:41.727Z,11.01
2022-09-16T20:01:11.317Z,11.01
2022-09-16T20:03:40.956Z,11.07
2022-09-16T20:06:15.972Z,11.13
2022-09-16T20:08:44.600Z,11.15
2022-09-16T20:11:17.905Z,11.15
2022-09-16T20:13:52.459Z,11.15
2022-09-16T20:16:20.794Z,11.13
2022-09-16T20:18:47.858Z,11.08
2022-09-16T20:21:20.573Z,11.00
2022-09-16T20:23:48.216Z,10.99
2022-09-16T20:26:19.909Z,10.94
2022-09-16T20:28:51.753Z,10.89
2022-09-16T20:31:24.072Z,10.77
2022-09-16T20:33:51.758Z,10.74
2022-09-16T20:36:23.591Z,10.68
2022-09-16T20:38:51.074Z,10.59
2022-09-16T20:41:24.138Z,10.45
2022-09-16T20:43:52.288Z,10.36
2022-09-16T20:46:31.579Z,10.34
2022-09-16T20:49:03.314Z,10.29
2022-09-16T20:51:33.641Z,10.32
2022-09-16T20:54:09.071Z,10.33
2022-09-16T20:56:39.887Z,10.34
2022-09-16T20:59:12.180Z,10.33
2022-09-16T21:01:40.576Z,10.39
2022-09-16T21:04:11.458Z,10.35
2022-09-16T21:06:37.986Z,10.33
2022-09-16T21:09:08.886Z,10.35
2022-09-16T21:11:36.003Z,10.27
2022-09-16T21:14:07.193Z,10.22
2022-09-16T21:16:36.079Z,10.26
2022-09-16T21:19:04.903Z,10.28
2022-09-16T21:21:32.123Z,10.34
2022-09-16T21:24:00.509Z,10.39
2022-09-16T21:26:30.340Z,10.38
2022-09-16T21:28:59.845Z,10.35
2022-09-16T21:31:29.416Z,10.38
2022-09-16T21:33:56.849Z,10.40
2022-09-16T21:36:24.786Z,10.43
2022-09-16T21:38:52.131Z,10.46
2022-09-16T21:41:21.358Z,10.44
2022-09-16T21:43:55.505Z,10.46
2022-09-16T21:46:27.863Z,10.49
2022-09-16T21:49:00.215Z,10.48
2022-09-16T21:51:34.786Z,10.56
2022-09-16T21:54:05.758Z,10.62
2022-09-16T21:56:32.541Z,10.75
2022-09-16T21:59:00.261Z,10.82
2022-09-16T22:01:30.086Z,10.86
2022-09-16T22:04:01.937Z,10.89
2022-09-16T22:06:29.035Z,10.98
2022-09-16T22:08:58.661Z,11.04
2022-09-16T22:11:27.468Z,11.18
2022-09-16T22:13:55.463Z,11.10
2022-09-16T22:16:28.763Z,11.23
2022-09-16T22:18:58.135Z,11.18
2022-09-16T22:21:27.280Z,11.19
2022-09-16T22:23:54.088Z,11.23
2022-09-16T22:26:22.715Z,11.30
2022-09-16T22:28:50.569Z,11.36
2022-09-16T22:31:29.112Z,11.57
2022-09-16T22:33:58.057Z,11.57
2022-09-16T22:36:27.326Z,11.62
2022-09-16T22:39:01.425Z,11.59
2022-09-16T22:41:29.118Z,11.58
2022-09-16T22:43:55.646Z,11.62
2022-09-16T22:46:28.121Z,11.65
2022-09-16T22:48:56.191Z,11.66
2022-09-16T22:51:23.125Z,11.83
2022-09-16T22:53:49.689Z,11.81
2022-09-16T22:56:22.249Z,11.89
2022-09-16T22:58:53.452Z,11.74
2022-09-16T23:01:23.171Z,11.85
2022-09-16T23:03:54.486Z,11.79
2022-09-16T23:06:21.967Z,11.87
2022-09-16T23:08:48.692Z,11.84
2022-09-16T23:11:19.831Z,11.88
2022-09-16T23:13:50.286Z,11.89
2022-09-16T23:16:21.161Z,11.77
2022-09-16T23:18:48.872Z,11.81
2022-09-16T23:21:18.308Z,11.75
2022-09-16T23:23:47.038Z,11.77
2022-09-16T23:26:16.804Z,12.04
2022-09-16T23:28:43.862Z,11.90
2022-09-16T23:31:13.352Z,11.99
2022-09-16T23:33:41.040Z,12.04
2022-09-16T23:36:08.981Z,12.06
2022-09-16T23:38:37.568Z,11.92
2022-09-16T23:41:13.389Z,11.92
2022-09-16T23:43:41.661Z,11.98
2022-09-16T23:46:09.934Z,11.92
2022-09-16T23:48:38.693Z,11.82
2022-09-16T23:51:06.011Z,11.71
2022-09-16T23:53:33.305Z,11.73
2022-09-16T23:55:59.947Z,11.64
2022-09-16T23:58:26.409Z,11.75
